createdAt,value
2019-02-26T00:03:08.096Z,1.10
2019-02-26T00:07:14.273Z,1.00
2019-02-26T00:11:18.073Z,1.03
2019-02-26T00:15:22.243Z,1.13
2019-02-26T00:19:26.304Z,1.27
2019-02-26T00:23:30.295Z,1.10
2019-02-26T00:27:35.140Z,1.03
2019-02-26T00:31:40.256Z,1.03
2019-02-26T00:35:46.081Z,0.80
2019-02-26T00:39:53.990Z,0.83
2019-02-26T00:43:59.478Z,0.93
2019-02-26T00:48:03.497Z,0.70
2019-02-26T00:52:08.707Z,0.60
2019-02-26T00:56:13.318Z,0.90
2019-02-26T01:00:17.488Z,1.03
2019-02-26T01:04:21.637Z,0.80
2019-02-26T01:08:25.803Z,1.00
2019-02-26T01:12:30.981Z,0.90
2019-02-26T01:16:37.062Z,0.80
2019-02-26T01:20:41.301Z,0.60
2019-02-26T01:24:45.197Z,0.53
2019-02-26T01:28:51.162Z,0.80
2019-02-26T01:32:57.551Z,0.77
2019-02-26T01:37:01.365Z,1.03
2019-02-26T01:41:08.664Z,0.70
2019-02-26T01:45:12.252Z,0.70
2019-02-26T01:49:17.130Z,0.70
2019-02-26T01:53:23.699Z,0.73
2019-02-26T01:57:27.919Z,0.70
2019-02-26T02:01:31.805Z,0.80
2019-02-26T02:05:35.885Z,0.80
2019-02-26T02:09:39.971Z,0.63
2019-02-26T02:13:44.059Z,0.63
2019-02-26T02:17:48.071Z,0.50
2019-02-26T02:21:53.796Z,0.70
2019-02-26T02:26:02.163Z,0.70
2019-02-26T02:30:04.465Z,0.70
2019-02-26T02:34:08.510Z,0.60
2019-02-26T02:38:13.527Z,0.50
2019-02-26T02:42:21.295Z,0.70
2019-02-26T02:46:25.557Z,0.70
2019-02-26T02:50:29.634Z,0.63
2019-02-26T02:54:33.534Z,0.80
2019-02-26T02:58:38.621Z,0.60
2019-02-26T03:02:46.846Z,0.57
2019-02-26T03:06:52.440Z,0.63
2019-02-26T03:10:55.861Z,0.60
2019-02-26T03:15:02.096Z,0.60
2019-02-26T03:19:07.782Z,0.67
2019-02-26T03:23:15.860Z,0.60
2019-02-26T03:27:18.013Z,0.70
2019-02-26T03:31:25.814Z,0.70
2019-02-26T03:35:27.900Z,0.60
2019-02-26T03:39:31.861Z,0.57
2019-02-26T03:43:37.081Z,0.60
2019-02-26T03:47:41.925Z,0.70
2019-02-26T03:51:46.044Z,0.60
2019-02-26T03:55:50.163Z,0.73
2019-02-26T04:04:41.127Z,0.73
2019-02-26T04:08:48.036Z,0.80
2019-02-26T04:12:52.290Z,0.67
2019-02-26T04:16:58.656Z,0.80
2019-02-26T04:21:05.730Z,0.70
2019-02-26T04:25:10.484Z,0.80
2019-02-26T04:29:36.089Z,0.80
2019-02-26T04:33:46.428Z,0.97
2019-02-26T04:38:09.619Z,1.00
2019-02-26T04:42:20.502Z,0.90
2019-02-26T04:46:28.825Z,0.83
2019-02-26T04:50:35.489Z,0.97
2019-02-26T04:54:39.538Z,0.80
2019-02-26T04:58:45.901Z,1.10
2019-02-26T05:02:49.593Z,1.17
2019-02-26T05:06:53.692Z,1.20
2019-02-26T05:10:59.917Z,2.40
2019-02-26T05:15:03.656Z,1.83
2019-02-26T05:19:07.602Z,1.50
2019-02-26T05:23:11.952Z,1.30
2019-02-26T05:27:18.690Z,1.23
2019-02-26T05:31:22.037Z,1.50
2019-02-26T05:35:26.083Z,1.10
2019-02-26T05:39:30.159Z,1.17
2019-02-26T05:43:34.361Z,1.13
2019-02-26T05:47:38.429Z,1.40
2019-02-26T05:51:42.406Z,1.43
2019-02-26T05:55:48.545Z,1.50
2019-02-26T05:59:52.263Z,1.60
2019-02-26T06:03:56.477Z,4.10
2019-02-26T06:08:00.526Z,5.20
2019-02-26T06:12:04.624Z,3.63
2019-02-26T06:16:08.526Z,2.70
2019-02-26T06:20:19.755Z,2.60
2019-02-26T06:24:24.820Z,2.00
2019-02-26T06:28:29.570Z,1.77
2019-02-26T06:32:35.190Z,1.17
2019-02-26T06:36:39.328Z,0.87
2019-02-26T06:40:47.070Z,0.90
2019-02-26T06:44:51.225Z,0.77
2019-02-26T06:48:56.004Z,0.90
2019-02-26T06:53:00.275Z,0.80
2019-02-26T06:57:04.332Z,0.83
2019-02-26T07:01:09.622Z,0.70
2019-02-26T07:05:14.342Z,0.70
2019-02-26T07:09:20.388Z,0.90
2019-02-26T07:13:24.493Z,0.50
2019-02-26T07:17:31.881Z,0.80
2019-02-26T07:21:34.384Z,0.80
2019-02-26T07:25:42.048Z,0.40
2019-02-26T07:29:47.564Z,0.50
2019-02-26T07:33:53.293Z,0.60
2019-02-26T07:37:59.475Z,0.30
2019-02-26T07:42:03.851Z,0.40
2019-02-26T07:46:10.348Z,0.33
2019-02-26T07:50:14.956Z,0.40
2019-02-26T07:54:19.640Z,0.60
2019-02-26T07:58:26.323Z,0.60
2019-02-26T08:02:32.418Z,0.70
2019-02-26T08:06:38.483Z,0.80
2019-02-26T08:10:44.687Z,0.70
2019-02-26T08:14:50.101Z,0.60
2019-02-26T08:18:56.562Z,0.40
2019-02-26T08:23:01.372Z,0.50
2019-02-26T08:27:08.476Z,0.50
2019-02-26T08:31:15.427Z,0.60
2019-02-26T08:35:18.957Z,0.33
2019-02-26T08:39:23.212Z,0.63
2019-02-26T08:43:27.320Z,0.40
2019-02-26T08:47:31.391Z,0.40
2019-02-26T08:51:35.533Z,0.40
2019-02-26T08:55:39.696Z,0.40
2019-02-26T08:59:45.272Z,0.50
2019-02-26T09:03:50.796Z,0.40
2019-02-26T09:07:55.570Z,0.60
2019-02-26T09:12:01.204Z,0.43
2019-02-26T09:16:06.212Z,0.47
2019-02-26T09:20:14.558Z,0.60
2019-02-26T09:24:18.267Z,0.60
2019-02-26T09:28:24.747Z,0.50
2019-02-26T09:32:28.360Z,0.40
2019-02-26T09:36:33.421Z,2.30
2019-02-26T09:40:37.505Z,2.13
2019-02-26T09:44:41.747Z,1.82
2019-02-26T09:48:46.163Z,2.00
2019-02-26T09:52:52.332Z,1.10
2019-02-26T09:56:56.147Z,1.02
2019-02-26T10:01:00.344Z,0.70
2019-02-26T10:05:06.380Z,0.40
2019-02-26T10:09:12.819Z,0.60
2019-02-26T10:13:18.264Z,0.45
2019-02-26T10:17:22.406Z,0.47
2019-02-26T10:21:26.447Z,0.65
2019-02-26T10:25:32.094Z,0.50
2019-02-26T10:29:39.850Z,0.30
2019-02-26T10:33:45.769Z,0.37
2019-02-26T10:37:50.433Z,0.40
2019-02-26T10:41:54.462Z,0.40
2019-02-26T10:45:58.666Z,0.40
2019-02-26T10:50:03.876Z,0.13
2019-02-26T10:54:09.663Z,0.40
2019-02-26T10:58:13.750Z,0.37
2019-02-26T11:02:20.651Z,0.42
2019-02-26T11:06:24.085Z,0.30
2019-02-26T11:10:28.280Z,0.20
2019-02-26T11:14:33.986Z,0.25
2019-02-26T11:18:39.819Z,0.30
2019-02-26T11:22:46.699Z,0.20
2019-02-26T11:26:50.761Z,0.20
2019-02-26T11:30:56.568Z,0.20
2019-02-26T11:35:02.440Z,0.20
2019-02-26T11:39:09.126Z,0.28
2019-02-26T11:43:14.979Z,0.35
2019-02-26T11:47:20.621Z,0.30
2019-02-26T11:51:25.871Z,0.30
2019-02-26T11:55:32.402Z,0.60
2019-02-26T11:59:38.570Z,0.40
2019-02-26T12:03:43.914Z,0.40
2019-02-26T12:07:51.464Z,0.50
2019-02-26T12:11:56.010Z,0.30
2019-02-26T12:16:01.347Z,0.30
2019-02-26T12:20:06.793Z,0.30
2019-02-26T12:24:12.570Z,0.30
2019-02-26T12:28:16.873Z,0.70
2019-02-26T12:32:22.354Z,0.28
2019-02-26T12:36:29.905Z,0.20
2019-02-26T12:40:32.869Z,0.25
2019-02-26T12:44:39.428Z,0.40
2019-02-26T12:48:46.434Z,0.20
2019-02-26T12:52:51.600Z,0.30
2019-02-26T12:56:55.014Z,0.28
2019-02-26T13:01:01.479Z,0.50
2019-02-26T13:05:10.107Z,0.30
2019-02-26T13:09:12.939Z,0.40
2019-02-26T13:13:17.277Z,0.30
2019-02-26T13:17:26.201Z,0.30
2019-02-26T13:21:27.100Z,0.30
2019-02-26T13:25:31.408Z,0.40
2019-02-26T13:29:35.629Z,0.40
2019-02-26T13:33:42.019Z,0.40
2019-02-26T13:37:46.201Z,0.70
2019-02-26T13:41:54.390Z,0.40
2019-02-26T13:45:56.158Z,0.30
2019-02-26T13:50:00.405Z,0.60
2019-02-26T13:54:04.743Z,0.30
2019-02-26T13:58:11.854Z,0.40
2019-02-26T14:02:17.116Z,0.40
2019-02-26T14:06:21.292Z,0.40
2019-02-26T14:10:26.537Z,1.40
2019-02-26T14:14:30.818Z,0.80
2019-02-26T14:18:38.652Z,2.75
2019-02-26T14:22:42.745Z,2.52
2019-02-26T14:26:47.126Z,2.08
2019-02-26T14:30:51.225Z,1.90
2019-02-26T14:34:55.403Z,1.30
2019-02-26T14:38:59.483Z,0.60
2019-02-26T14:43:03.818Z,0.85
2019-02-26T14:47:08.407Z,2.00
2019-02-26T14:51:12.729Z,1.90
2019-02-26T14:55:17.223Z,0.53
2019-02-26T14:59:21.299Z,1.92
2019-02-26T15:03:25.489Z,2.90
2019-02-26T15:07:30.594Z,3.27
2019-02-26T15:11:34.925Z,2.35
2019-02-26T15:15:39.283Z,2.50
2019-02-26T15:19:49.614Z,0.90
2019-02-26T15:23:50.355Z,1.17
2019-02-26T15:28:04.293Z,1.42
2019-02-26T15:32:00.694Z,1.70
2019-02-26T15:36:04.860Z,1.77
2019-02-26T15:40:09.812Z,1.75
2019-02-26T15:44:14.067Z,3.35
2019-02-26T15:48:18.345Z,1.80
2019-02-26T15:52:22.450Z,4.30
2019-02-26T15:56:33.171Z,3.25
2019-02-26T16:00:38.437Z,5.05
2019-02-26T16:04:42.726Z,6.95
2019-02-26T16:08:46.813Z,7.95
2019-02-26T16:12:51.067Z,6.40
2019-02-26T16:16:55.415Z,7.58
2019-02-26T16:20:59.917Z,3.67
2019-02-26T16:25:07.569Z,2.10
2019-02-26T16:29:10.159Z,1.77
2019-02-26T16:33:14.582Z,1.17
2019-02-26T16:37:18.740Z,1.75
2019-02-26T16:41:22.841Z,1.00
2019-02-26T16:45:26.992Z,1.20
2019-02-26T16:49:31.102Z,0.80
2019-02-26T16:53:35.284Z,0.60
2019-02-26T16:57:39.809Z,0.72
2019-02-26T17:01:43.901Z,1.00
2019-02-26T17:05:48.296Z,0.93
2019-02-26T17:09:55.517Z,0.90
2019-02-26T17:13:58.314Z,0.80
2019-02-26T17:18:02.453Z,0.90
2019-02-26T17:22:07.808Z,0.90
2019-02-26T17:26:11.997Z,1.05
2019-02-26T17:30:20.867Z,1.27
2019-02-26T17:34:26.059Z,1.60
2019-02-26T17:38:30.078Z,1.70
2019-02-26T17:42:34.137Z,2.00
2019-02-26T17:46:59.094Z,2.92
2019-02-26T17:51:03.107Z,3.50
2019-02-26T17:55:09.326Z,3.90
2019-02-26T17:59:16.528Z,4.10
2019-02-26T18:03:19.176Z,2.50
2019-02-26T18:07:23.424Z,2.23
2019-02-26T18:11:27.617Z,2.00
2019-02-26T18:15:31.690Z,2.77
2019-02-26T18:19:35.844Z,2.57
2019-02-26T18:23:39.959Z,1.93
2019-02-26T18:27:44.287Z,3.30
2019-02-26T18:31:48.318Z,1.97
2019-02-26T18:35:54.833Z,1.43
2019-02-26T18:39:58.998Z,1.60
2019-02-26T18:44:06.205Z,2.43
2019-02-26T18:48:10.195Z,8.43
2019-02-26T18:52:14.273Z,9.47
2019-02-26T18:56:18.355Z,7.70
2019-02-26T19:00:25.610Z,8.63
2019-02-26T19:04:30.252Z,7.47
2019-02-26T19:08:34.745Z,9.03
2019-02-26T19:12:38.821Z,4.73
2019-02-26T19:16:44.292Z,4.70
2019-02-26T19:20:49.129Z,5.10
2019-02-26T19:24:57.240Z,6.67
2019-02-26T19:29:02.263Z,5.43
2019-02-26T19:33:06.325Z,2.67
2019-02-26T19:37:10.387Z,2.47
2019-02-26T19:41:14.697Z,3.70
2019-02-26T19:45:18.748Z,4.27
2019-02-26T19:49:23.051Z,3.60
2019-02-26T19:53:27.159Z,3.70
2019-02-26T19:57:31.090Z,2.60
2019-02-26T20:01:35.248Z,3.70
2019-02-26T20:05:41.120Z,2.23
2019-02-26T20:09:45.032Z,1.90
2019-02-26T20:13:49.397Z,2.23
2019-02-26T20:17:53.485Z,1.97
2019-02-26T20:21:57.813Z,1.60
2019-02-26T20:26:01.873Z,1.90
2019-02-26T20:30:06.145Z,1.93
2019-02-26T20:34:10.316Z,1.87
2019-02-26T20:38:14.482Z,3.70
2019-02-26T20:42:18.449Z,3.77
2019-02-26T20:46:24.982Z,2.00
2019-02-26T20:50:28.333Z,2.07
2019-02-26T20:54:32.892Z,1.70
2019-02-26T20:58:38.116Z,1.70
2019-02-26T21:02:42.277Z,1.90
2019-02-26T21:06:50.461Z,1.60
2019-02-26T21:10:52.389Z,1.60
2019-02-26T21:14:56.679Z,1.90
2019-02-26T21:19:02.998Z,1.93
2019-02-26T21:23:06.467Z,1.43
2019-02-26T21:27:10.460Z,0.90
2019-02-26T21:31:16.710Z,0.90
2019-02-26T21:35:21.383Z,0.90
2019-02-26T21:39:26.513Z,0.87
2019-02-26T21:43:34.743Z,0.70
2019-02-26T21:47:36.341Z,0.67
2019-02-26T21:51:40.749Z,0.73
2019-02-26T21:55:44.813Z,0.70
2019-02-26T21:59:50.302Z,0.50
2019-02-26T22:03:55.796Z,0.70
2019-02-26T22:08:00.235Z,0.60
2019-02-26T22:12:04.449Z,0.50
2019-02-26T22:16:08.571Z,0.90
2019-02-26T22:20:23.437Z,1.10
2019-02-26T22:24:18.869Z,0.90
2019-02-26T22:28:25.796Z,0.80
2019-02-26T22:32:29.719Z,0.80
2019-02-26T22:36:34.025Z,0.77
2019-02-26T22:40:38.110Z,0.80
2019-02-26T22:44:42.233Z,0.90
2019-02-26T22:48:46.953Z,0.80
2019-02-26T22:52:51.923Z,0.80
2019-02-26T22:56:56.852Z,1.00
2019-02-26T23:01:15.930Z,1.00
2019-02-26T23:05:25.467Z,1.00
2019-02-26T23:09:30.079Z,1.17
2019-02-26T23:13:34.111Z,1.27
2019-02-26T23:17:38.176Z,1.40
2019-02-26T23:21:43.952Z,1.00
2019-02-26T23:25:47.924Z,1.20
2019-02-26T23:29:52.021Z,1.03
2019-02-26T23:33:56.183Z,1.20
2019-02-26T23:38:00.319Z,1.20
2019-02-26T23:42:06.043Z,1.70
2019-02-26T23:46:10.201Z,1.00
2019-02-26T23:50:14.324Z,1.40
2019-02-26T23:54:18.311Z,0.93
2019-02-26T23:58:26.060Z,1.30
